sensor_id;sensor_type;location;lat;lon;timestamp;temperature;humidity
41437;DHT22;27178;49.460;10.850;2023-04-24T00:01:52;16.40;70.60
41437;DHT22;27178;49.460;10.850;2023-04-24T00:04:20;16.40;70.80
41437;DHT22;27178;49.460;10.850;2023-04-24T00:06:48;16.40;70.80
41437;DHT22;27178;49.460;10.850;2023-04-24T00:09:20;16.40;70.90
41437;DHT22;27178;49.460;10.850;2023-04-24T00:11:48;16.40;70.90
41437;DHT22;27178;49.460;10.850;2023-04-24T00:14:17;17.70;71.80
41437;DHT22;27178;49.460;10.850;2023-04-24T00:16:45;16.30;70.90
41437;DHT22;27178;49.460;10.850;2023-04-24T00:19:14;16.20;71.10
41437;DHT22;27178;49.460;10.850;2023-04-24T00:21:43;16.30;71.10
41437;DHT22;27178;49.460;10.850;2023-04-24T00:24:11;16.30;71.30
41437;DHT22;27178;49.460;10.850;2023-04-24T00:26:39;16.20;71.00
41437;DHT22;27178;49.460;10.850;2023-04-24T00:29:07;16.20;72.50
41437;DHT22;27178;49.460;10.850;2023-04-24T00:31:35;16.20;71.30
41437;DHT22;27178;49.460;10.850;2023-04-24T00:34:04;16.20;71.20
41437;DHT22;27178;49.460;10.850;2023-04-24T00:36:34;16.20;71.30
41437;DHT22;27178;49.460;10.850;2023-04-24T00:39:02;16.20;71.30
41437;DHT22;27178;49.460;10.850;2023-04-24T00:41:30;16.10;71.20
41437;DHT22;27178;49.460;10.850;2023-04-24T00:43:59;16.10;71.40
41437;DHT22;27178;49.460;10.850;2023-04-24T00:46:27;16.10;71.30
41437;DHT22;27178;49.460;10.850;2023-04-24T00:48:56;16.10;71.30
41437;DHT22;27178;49.460;10.850;2023-04-24T00:51:24;16.10;71.40
41437;DHT22;27178;49.460;10.850;2023-04-24T00:53:54;16.10;71.40
41437;DHT22;27178;49.460;10.850;2023-04-24T00:56:22;16.00;71.20
41437;DHT22;27178;49.460;10.850;2023-04-24T00:58:50;16.00;71.20
41437;DHT22;27178;49.460;10.850;2023-04-24T01:01:19;16.00;71.20
41437;DHT22;27178;49.460;10.850;2023-04-24T01:03:49;16.00;71.10
41437;DHT22;27178;49.460;10.850;2023-04-24T01:06:19;16.00;71.00
41437;DHT22;27178;49.460;10.850;2023-04-24T01:08:48;16.00;70.90
41437;DHT22;27178;49.460;10.850;2023-04-24T01:11:18;16.00;70.90
41437;DHT22;27178;49.460;10.850;2023-04-24T01:13:47;15.90;70.90
41437;DHT22;27178;49.460;10.850;2023-04-24T01:16:15;15.90;70.90
41437;DHT22;27178;49.460;10.850;2023-04-24T01:18:44;15.90;70.80
41437;DHT22;27178;49.460;10.850;2023-04-24T01:21:13;15.90;70.70
41437;DHT22;27178;49.460;10.850;2023-04-24T01:23:45;15.90;70.70
41437;DHT22;27178;49.460;10.850;2023-04-24T01:26:15;15.80;70.60
41437;DHT22;27178;49.460;10.850;2023-04-24T01:28:43;15.80;70.70
41437;DHT22;27178;49.460;10.850;2023-04-24T01:31:11;15.80;70.70
41437;DHT22;27178;49.460;10.850;2023-04-24T01:33:41;15.80;70.60
41437;DHT22;27178;49.460;10.850;2023-04-24T01:36:10;15.80;70.60
41437;DHT22;27178;49.460;10.850;2023-04-24T01:38:39;15.80;70.50
41437;DHT22;27178;49.460;10.850;2023-04-24T01:41:08;15.80;70.50
41437;DHT22;27178;49.460;10.850;2023-04-24T01:43:37;15.80;70.50
41437;DHT22;27178;49.460;10.850;2023-04-24T01:46:06;15.80;70.50
41437;DHT22;27178;49.460;10.850;2023-04-24T01:48:34;15.80;70.60
41437;DHT22;27178;49.460;10.850;2023-04-24T01:51:03;15.80;70.60
41437;DHT22;27178;49.460;10.850;2023-04-24T01:53:31;15.80;70.50
41437;DHT22;27178;49.460;10.850;2023-04-24T01:55:59;15.80;70.60
41437;DHT22;27178;49.460;10.850;2023-04-24T01:58:28;15.80;70.70
41437;DHT22;27178;49.460;10.850;2023-04-24T02:00:57;15.80;70.70
41437;DHT22;27178;49.460;10.850;2023-04-24T02:03:25;15.80;70.60
41437;DHT22;27178;49.460;10.850;2023-04-24T02:05:54;15.80;70.70
41437;DHT22;27178;49.460;10.850;2023-04-24T02:08:22;15.70;70.70
41437;DHT22;27178;49.460;10.850;2023-04-24T02:10:51;15.70;70.60
41437;DHT22;27178;49.460;10.850;2023-04-24T02:13:19;15.70;70.70
41437;DHT22;27178;49.460;10.850;2023-04-24T02:15:48;15.70;70.80
41437;DHT22;27178;49.460;10.850;2023-04-24T02:18:16;15.70;70.80
41437;DHT22;27178;49.460;10.850;2023-04-24T02:20:44;15.60;70.90
41437;DHT22;27178;49.460;10.850;2023-04-24T02:23:12;15.60;70.90
41437;DHT22;27178;49.460;10.850;2023-04-24T02:25:41;15.60;71.10
41437;DHT22;27178;49.460;10.850;2023-04-24T02:28:09;15.60;71.10
41437;DHT22;27178;49.460;10.850;2023-04-24T02:30:37;15.60;71.20
41437;DHT22;27178;49.460;10.850;2023-04-24T02:33:07;15.50;71.10
41437;DHT22;27178;49.460;10.850;2023-04-24T02:35:35;15.50;71.10
41437;DHT22;27178;49.460;10.850;2023-04-24T02:38:03;15.50;71.20
41437;DHT22;27178;49.460;10.850;2023-04-24T02:40:32;15.50;71.10
41437;DHT22;27178;49.460;10.850;2023-04-24T02:43:00;15.50;71.30
41437;DHT22;27178;49.460;10.850;2023-04-24T02:45:28;15.50;71.30
41437;DHT22;27178;49.460;10.850;2023-04-24T02:47:56;15.40;71.20
41437;DHT22;27178;49.460;10.850;2023-04-24T02:50:25;15.40;71.30
41437;DHT22;27178;49.460;10.850;2023-04-24T02:52:54;15.40;71.40
41437;DHT22;27178;49.460;10.850;2023-04-24T02:55:22;15.40;71.30
41437;DHT22;27178;49.460;10.850;2023-04-24T02:57:50;15.40;71.40
41437;DHT22;27178;49.460;10.850;2023-04-24T03:00:18;15.40;71.40
41437;DHT22;27178;49.460;10.850;2023-04-24T03:02:46;15.40;71.50
41437;DHT22;27178;49.460;10.850;2023-04-24T03:05:16;15.30;71.50
41437;DHT22;27178;49.460;10.850;2023-04-24T03:07:46;15.30;71.50
41437;DHT22;27178;49.460;10.850;2023-04-24T03:10:14;15.30;71.60
41437;DHT22;27178;49.460;10.850;2023-04-24T03:12:42;15.30;71.80
41437;DHT22;27178;49.460;10.850;2023-04-24T03:15:10;15.30;72.70
41437;DHT22;27178;49.460;10.850;2023-04-24T03:17:38;15.20;71.70
41437;DHT22;27178;49.460;10.850;2023-04-24T03:20:08;15.20;71.80
41437;DHT22;27178;49.460;10.850;2023-04-24T03:22:36;15.20;71.90
41437;DHT22;27178;49.460;10.850;2023-04-24T03:25:06;15.20;71.80
41437;DHT22;27178;49.460;10.850;2023-04-24T03:27:36;15.20;72.00
41437;DHT22;27178;49.460;10.850;2023-04-24T03:30:07;15.20;72.00
41437;DHT22;27178;49.460;10.850;2023-04-24T03:32:35;15.20;72.00
41437;DHT22;27178;49.460;10.850;2023-04-24T03:35:04;15.10;72.00
41437;DHT22;27178;49.460;10.850;2023-04-24T03:37:32;15.10;72.00
41437;DHT22;27178;49.460;10.850;2023-04-24T03:40:00;15.10;72.00
41437;DHT22;27178;49.460;10.850;2023-04-24T03:42:29;15.10;72.00
41437;DHT22;27178;49.460;10.850;2023-04-24T03:44:57;15.10;72.00
41437;DHT22;27178;49.460;10.850;2023-04-24T03:47:25;15.10;72.00
41437;DHT22;27178;49.460;10.850;2023-04-24T03:49:53;15.10;72.10
41437;DHT22;27178;49.460;10.850;2023-04-24T03:52:22;15.10;72.20
41437;DHT22;27178;49.460;10.850;2023-04-24T03:54:50;15.10;72.20
41437;DHT22;27178;49.460;10.850;2023-04-24T03:57:18;15.00;72.00
41437;DHT22;27178;49.460;10.850;2023-04-24T03:59:48;15.00;72.10
41437;DHT22;27178;49.460;10.850;2023-04-24T04:02:16;15.00;72.20
41437;DHT22;27178;49.460;10.850;2023-04-24T04:04:44;15.00;72.30
41437;DHT22;27178;49.460;10.850;2023-04-24T04:07:13;15.00;73.30
41437;DHT22;27178;49.460;10.850;2023-04-24T04:09:41;15.00;72.30
41437;DHT22;27178;49.460;10.850;2023-04-24T04:12:09;15.00;72.40
41437;DHT22;27178;49.460;10.850;2023-04-24T04:14:38;15.00;72.40
41437;DHT22;27178;49.460;10.850;2023-04-24T04:17:07;15.00;72.50
41437;DHT22;27178;49.460;10.850;2023-04-24T04:19:35;14.90;72.50
41437;DHT22;27178;49.460;10.850;2023-04-24T04:22:03;14.90;72.50
41437;DHT22;27178;49.460;10.850;2023-04-24T04:24:31;14.90;72.70
41437;DHT22;27178;49.460;10.850;2023-04-24T04:26:59;14.90;72.60
41437;DHT22;27178;49.460;10.850;2023-04-24T04:29:28;14.90;72.70
41437;DHT22;27178;49.460;10.850;2023-04-24T04:31:56;14.90;72.90
41437;DHT22;27178;49.460;10.850;2023-04-24T04:34:26;14.90;72.90
41437;DHT22;27178;49.460;10.850;2023-04-24T04:36:54;14.90;72.90
41437;DHT22;27178;49.460;10.850;2023-04-24T04:39:22;14.80;73.00
41437;DHT22;27178;49.460;10.850;2023-04-24T04:41:50;14.80;73.00
41437;DHT22;27178;49.460;10.850;2023-04-24T04:44:19;14.80;73.00
41437;DHT22;27178;49.460;10.850;2023-04-24T04:46:48;14.80;73.10
41437;DHT22;27178;49.460;10.850;2023-04-24T04:49:16;14.80;73.10
41437;DHT22;27178;49.460;10.850;2023-04-24T04:51:47;14.80;73.00
41437;DHT22;27178;49.460;10.850;2023-04-24T04:54:15;14.80;73.00
41437;DHT22;27178;49.460;10.850;2023-04-24T04:56:44;14.80;73.10
41437;DHT22;27178;49.460;10.850;2023-04-24T04:59:12;14.80;73.10
41437;DHT22;27178;49.460;10.850;2023-04-24T05:01:40;14.80;73.10
41437;DHT22;27178;49.460;10.850;2023-04-24T05:04:09;14.80;73.20
41437;DHT22;27178;49.460;10.850;2023-04-24T05:06:37;14.80;73.20
41437;DHT22;27178;49.460;10.850;2023-04-24T05:09:07;14.80;73.10
41437;DHT22;27178;49.460;10.850;2023-04-24T05:11:35;14.80;73.20
41437;DHT22;27178;49.460;10.850;2023-04-24T05:14:04;14.80;73.20
41437;DHT22;27178;49.460;10.850;2023-04-24T05:19:01;14.80;73.20
41437;DHT22;27178;49.460;10.850;2023-04-24T05:21:29;14.70;73.30
41437;DHT22;27178;49.460;10.850;2023-04-24T05:23:57;14.70;73.20
41437;DHT22;27178;49.460;10.850;2023-04-24T05:26:27;14.70;73.20
41437;DHT22;27178;49.460;10.850;2023-04-24T05:28:55;14.70;73.40
41437;DHT22;27178;49.460;10.850;2023-04-24T05:31:23;14.70;74.40
41437;DHT22;27178;49.460;10.850;2023-04-24T05:33:52;14.70;73.60
41437;DHT22;27178;49.460;10.850;2023-04-24T05:36:20;14.70;73.60
41437;DHT22;27178;49.460;10.850;2023-04-24T05:38:49;14.70;73.60
41437;DHT22;27178;49.460;10.850;2023-04-24T05:41:17;14.70;73.70
41437;DHT22;27178;49.460;10.850;2023-04-24T05:43:47;14.70;73.60
41437;DHT22;27178;49.460;10.850;2023-04-24T05:46:15;14.70;73.80
41437;DHT22;27178;49.460;10.850;2023-04-24T05:48:44;14.80;73.90
41437;DHT22;27178;49.460;10.850;2023-04-24T05:51:12;14.80;73.90
41437;DHT22;27178;49.460;10.850;2023-04-24T05:53:40;14.80;73.90
41437;DHT22;27178;49.460;10.850;2023-04-24T05:56:09;14.80;73.90
41437;DHT22;27178;49.460;10.850;2023-04-24T05:58:37;14.80;73.90
41437;DHT22;27178;49.460;10.850;2023-04-24T06:01:07;14.80;73.90
41437;DHT22;27178;49.460;10.850;2023-04-24T06:03:36;14.90;74.00
41437;DHT22;27178;49.460;10.850;2023-04-24T06:06:06;14.90;73.80
41437;DHT22;27178;49.460;10.850;2023-04-24T06:08:34;14.90;73.70
41437;DHT22;27178;49.460;10.850;2023-04-24T06:11:02;15.00;73.60
41437;DHT22;27178;49.460;10.850;2023-04-24T06:13:30;15.00;73.40
41437;DHT22;27178;49.460;10.850;2023-04-24T06:15:59;15.00;73.20
41437;DHT22;27178;49.460;10.850;2023-04-24T06:18:29;14.90;73.10
41437;DHT22;27178;49.460;10.850;2023-04-24T06:20:57;15.00;73.30
41437;DHT22;27178;49.460;10.850;2023-04-24T06:23:25;15.00;73.30
41437;DHT22;27178;49.460;10.850;2023-04-24T06:25:54;15.00;73.30
41437;DHT22;27178;49.460;10.850;2023-04-24T06:28:22;15.00;73.30
41437;DHT22;27178;49.460;10.850;2023-04-24T06:30:50;15.00;73.10
41437;DHT22;27178;49.460;10.850;2023-04-24T06:33:19;14.90;72.80
41437;DHT22;27178;49.460;10.850;2023-04-24T06:35:51;14.90;72.90
41437;DHT22;27178;49.460;10.850;2023-04-24T06:38:19;14.90;73.00
41437;DHT22;27178;49.460;10.850;2023-04-24T06:40:47;14.90;73.10
41437;DHT22;27178;49.460;10.850;2023-04-24T06:43:16;14.90;73.50
41437;DHT22;27178;49.460;10.850;2023-04-24T06:45:45;14.90;73.60
41437;DHT22;27178;49.460;10.850;2023-04-24T06:48:14;14.90;73.70
41437;DHT22;27178;49.460;10.850;2023-04-24T06:50:42;14.90;73.60
41437;DHT22;27178;49.460;10.850;2023-04-24T06:53:11;14.90;73.50
41437;DHT22;27178;49.460;10.850;2023-04-24T06:55:41;14.80;73.50
41437;DHT22;27178;49.460;10.850;2023-04-24T06:58:10;14.90;73.70
41437;DHT22;27178;49.460;10.850;2023-04-24T07:00:38;14.80;73.80
41437;DHT22;27178;49.460;10.850;2023-04-24T07:03:07;14.80;73.70
41437;DHT22;27178;49.460;10.850;2023-04-24T07:05:35;14.90;73.30
41437;DHT22;27178;49.460;10.850;2023-04-24T07:08:05;14.90;73.10
41437;DHT22;27178;49.460;10.850;2023-04-24T07:10:36;14.90;73.10
41437;DHT22;27178;49.460;10.850;2023-04-24T07:13:05;14.90;73.00
41437;DHT22;27178;49.460;10.850;2023-04-24T07:15:33;14.90;73.80
41437;DHT22;27178;49.460;10.850;2023-04-24T07:18:02;14.90;72.70
41437;DHT22;27178;49.460;10.850;2023-04-24T07:20:31;15.00;72.60
41437;DHT22;27178;49.460;10.850;2023-04-24T07:23:01;15.00;72.20
41437;DHT22;27178;49.460;10.850;2023-04-24T07:25:29;15.00;72.00
41437;DHT22;27178;49.460;10.850;2023-04-24T07:28:00;15.00;71.40
41437;DHT22;27178;49.460;10.850;2023-04-24T07:30:28;15.00;71.40
41437;DHT22;27178;49.460;10.850;2023-04-24T07:32:56;15.00;71.30
41437;DHT22;27178;49.460;10.850;2023-04-24T07:35:24;15.00;71.10
41437;DHT22;27178;49.460;10.850;2023-04-24T07:37:53;15.00;71.20
41437;DHT22;27178;49.460;10.850;2023-04-24T07:40:22;15.00;71.00
41437;DHT22;27178;49.460;10.850;2023-04-24T07:42:50;15.00;71.10
41437;DHT22;27178;49.460;10.850;2023-04-24T07:45:20;15.00;71.20
41437;DHT22;27178;49.460;10.850;2023-04-24T07:47:50;15.10;71.20
41437;DHT22;27178;49.460;10.850;2023-04-24T07:50:19;15.10;70.90
41437;DHT22;27178;49.460;10.850;2023-04-24T07:52:47;15.20;70.70
41437;DHT22;27178;49.460;10.850;2023-04-24T07:55:15;15.30;70.50
41437;DHT22;27178;49.460;10.850;2023-04-24T07:57:47;15.30;70.30
41437;DHT22;27178;49.460;10.850;2023-04-24T08:00:16;15.30;69.90
41437;DHT22;27178;49.460;10.850;2023-04-24T08:02:45;15.40;69.40
41437;DHT22;27178;49.460;10.850;2023-04-24T08:05:15;15.40;69.00
41437;DHT22;27178;49.460;10.850;2023-04-24T08:07:43;15.40;68.70
41437;DHT22;27178;49.460;10.850;2023-04-24T08:10:13;15.50;68.80
41437;DHT22;27178;49.460;10.850;2023-04-24T08:12:42;15.50;68.60
41437;DHT22;27178;49.460;10.850;2023-04-24T08:15:10;15.50;68.20
41437;DHT22;27178;49.460;10.850;2023-04-24T08:17:39;15.50;68.10
41437;DHT22;27178;49.460;10.850;2023-04-24T08:20:10;15.50;67.70
41437;DHT22;27178;49.460;10.850;2023-04-24T08:22:40;15.50;67.00
41437;DHT22;27178;49.460;10.850;2023-04-24T08:25:10;15.50;66.80
41437;DHT22;27178;49.460;10.850;2023-04-24T08:27:39;15.50;66.80
41437;DHT22;27178;49.460;10.850;2023-04-24T08:30:08;15.50;66.80
41437;DHT22;27178;49.460;10.850;2023-04-24T08:32:36;15.50;66.60
41437;DHT22;27178;49.460;10.850;2023-04-24T08:35:06;15.50;66.50
41437;DHT22;27178;49.460;10.850;2023-04-24T08:37:37;15.50;66.40
41437;DHT22;27178;49.460;10.850;2023-04-24T08:40:10;15.50;66.50
41437;DHT22;27178;49.460;10.850;2023-04-24T08:42:41;15.50;66.40
41437;DHT22;27178;49.460;10.850;2023-04-24T08:45:12;15.50;66.10
41437;DHT22;27178;49.460;10.850;2023-04-24T08:47:41;15.50;66.40
41437;DHT22;27178;49.460;10.850;2023-04-24T08:50:11;15.50;66.40
41437;DHT22;27178;49.460;10.850;2023-04-24T08:52:42;15.50;66.10
41437;DHT22;27178;49.460;10.850;2023-04-24T08:55:10;15.50;65.70
41437;DHT22;27178;49.460;10.850;2023-04-24T08:57:39;15.50;65.90
41437;DHT22;27178;49.460;10.850;2023-04-24T09:00:08;15.50;65.40
41437;DHT22;27178;49.460;10.850;2023-04-24T09:02:41;15.50;65.70
41437;DHT22;27178;49.460;10.850;2023-04-24T09:05:12;15.50;65.70
41437;DHT22;27178;49.460;10.850;2023-04-24T09:07:45;15.50;65.70
41437;DHT22;27178;49.460;10.850;2023-04-24T09:10:15;15.50;65.50
41437;DHT22;27178;49.460;10.850;2023-04-24T09:12:44;15.50;65.60
41437;DHT22;27178;49.460;10.850;2023-04-24T09:15:12;15.60;65.70
41437;DHT22;27178;49.460;10.850;2023-04-24T09:17:42;15.60;65.70
41437;DHT22;27178;49.460;10.850;2023-04-24T09:20:11;15.60;65.70
41437;DHT22;27178;49.460;10.850;2023-04-24T09:22:39;15.60;65.50
41437;DHT22;27178;49.460;10.850;2023-04-24T09:25:10;15.60;65.50
41437;DHT22;27178;49.460;10.850;2023-04-24T09:27:42;15.60;65.50
41437;DHT22;27178;49.460;10.850;2023-04-24T09:30:12;15.70;65.30
41437;DHT22;27178;49.460;10.850;2023-04-24T09:32:41;15.70;65.50
41437;DHT22;27178;49.460;10.850;2023-04-24T09:35:12;15.70;65.30
41437;DHT22;27178;49.460;10.850;2023-04-24T09:37:42;15.70;64.20
41437;DHT22;27178;49.460;10.850;2023-04-24T09:40:14;15.80;63.60
41437;DHT22;27178;49.460;10.850;2023-04-24T09:42:44;15.80;63.10
41437;DHT22;27178;49.460;10.850;2023-04-24T09:45:13;15.80;63.10
41437;DHT22;27178;49.460;10.850;2023-04-24T09:47:42;15.90;63.10
41437;DHT22;27178;49.460;10.850;2023-04-24T09:50:15;16.00;62.70
41437;DHT22;27178;49.460;10.850;2023-04-24T09:52:55;16.00;61.40
41437;DHT22;27178;49.460;10.850;2023-04-24T09:55:25;16.00;60.90
41437;DHT22;27178;49.460;10.850;2023-04-24T09:57:55;16.00;61.40
41437;DHT22;27178;49.460;10.850;2023-04-24T10:00:25;16.10;60.50
41437;DHT22;27178;49.460;10.850;2023-04-24T10:02:57;16.10;61.30
41437;DHT22;27178;49.460;10.850;2023-04-24T10:05:30;16.20;60.80
41437;DHT22;27178;49.460;10.850;2023-04-24T10:08:04;16.20;61.10
41437;DHT22;27178;49.460;10.850;2023-04-24T10:10:37;16.30;61.20
41437;DHT22;27178;49.460;10.850;2023-04-24T10:13:08;16.40;60.80
41437;DHT22;27178;49.460;10.850;2023-04-24T10:15:37;16.40;60.50
41437;DHT22;27178;49.460;10.850;2023-04-24T10:18:08;16.50;60.10
41437;DHT22;27178;49.460;10.850;2023-04-24T10:20:39;16.60;59.80
41437;DHT22;27178;49.460;10.850;2023-04-24T10:23:07;16.60;59.60
41437;DHT22;27178;49.460;10.850;2023-04-24T10:25:37;16.60;59.80
41437;DHT22;27178;49.460;10.850;2023-04-24T10:28:05;16.60;60.00
41437;DHT22;27178;49.460;10.850;2023-04-24T10:30:36;16.60;60.30
41437;DHT22;27178;49.460;10.850;2023-04-24T10:33:07;16.50;60.20
41437;DHT22;27178;49.460;10.850;2023-04-24T10:35:39;16.50;60.30
41437;DHT22;27178;49.460;10.850;2023-04-24T10:38:12;16.40;59.90
41437;DHT22;27178;49.460;10.850;2023-04-24T10:40:42;16.30;60.00
41437;DHT22;27178;49.460;10.850;2023-04-24T10:43:16;16.20;59.80
41437;DHT22;27178;49.460;10.850;2023-04-24T10:46:01;16.20;59.90
41437;DHT22;27178;49.460;10.850;2023-04-24T10:48:30;16.10;59.90
41437;DHT22;27178;49.460;10.850;2023-04-24T10:50:59;16.00;60.00
41437;DHT22;27178;49.460;10.850;2023-04-24T10:53:28;16.00;60.20
41437;DHT22;27178;49.460;10.850;2023-04-24T10:56:03;15.90;59.90
41437;DHT22;27178;49.460;10.850;2023-04-24T10:58:40;15.90;60.00
41437;DHT22;27178;49.460;10.850;2023-04-24T11:01:24;15.90;59.70
41437;DHT22;27178;49.460;10.850;2023-04-24T11:03:55;15.90;59.70
41437;DHT22;27178;49.460;10.850;2023-04-24T11:06:30;15.90;60.80
41437;DHT22;27178;49.460;10.850;2023-04-24T11:09:03;15.90;59.50
41437;DHT22;27178;49.460;10.850;2023-04-24T11:11:35;15.90;59.10
41437;DHT22;27178;49.460;10.850;2023-04-24T11:14:09;16.00;59.40
41437;DHT22;27178;49.460;10.850;2023-04-24T11:16:45;16.00;59.30
41437;DHT22;27178;49.460;10.850;2023-04-24T11:19:21;16.10;59.30
41437;DHT22;27178;49.460;10.850;2023-04-24T11:21:57;16.20;59.80
41437;DHT22;27178;49.460;10.850;2023-04-24T11:24:29;16.40;59.80
41437;DHT22;27178;49.460;10.850;2023-04-24T11:27:05;16.60;60.00
41437;DHT22;27178;49.460;10.850;2023-04-24T11:29:47;16.70;59.50
41437;DHT22;27178;49.460;10.850;2023-04-24T11:32:23;16.90;58.90
41437;DHT22;27178;49.460;10.850;2023-04-24T11:34:54;17.00;57.90
41437;DHT22;27178;49.460;10.850;2023-04-24T11:37:24;17.00;58.20
41437;DHT22;27178;49.460;10.850;2023-04-24T11:39:53;17.10;58.10
41437;DHT22;27178;49.460;10.850;2023-04-24T11:42:24;17.10;58.10
41437;DHT22;27178;49.460;10.850;2023-04-24T11:44:54;17.10;57.70
41437;DHT22;27178;49.460;10.850;2023-04-24T11:47:30;17.10;57.60
41437;DHT22;27178;49.460;10.850;2023-04-24T11:50:01;17.10;57.40
41437;DHT22;27178;49.460;10.850;2023-04-24T11:52:30;17.00;57.10
41437;DHT22;27178;49.460;10.850;2023-04-24T11:54:59;17.00;57.00
41437;DHT22;27178;49.460;10.850;2023-04-24T11:57:30;17.00;57.50
41437;DHT22;27178;49.460;10.850;2023-04-24T12:00:02;17.10;57.80
41437;DHT22;27178;49.460;10.850;2023-04-24T12:02:33;17.20;58.00
41437;DHT22;27178;49.460;10.850;2023-04-24T12:05:05;17.30;57.90
41437;DHT22;27178;49.460;10.850;2023-04-24T12:07:41;17.40;57.90
41437;DHT22;27178;49.460;10.850;2023-04-24T12:10:10;17.50;57.50
41437;DHT22;27178;49.460;10.850;2023-04-24T12:12:40;17.60;57.90
41437;DHT22;27178;49.460;10.850;2023-04-24T12:15:10;17.70;57.60
41437;DHT22;27178;49.460;10.850;2023-04-24T12:17:41;17.90;57.30
41437;DHT22;27178;49.460;10.850;2023-04-24T12:20:12;18.00;56.90
41437;DHT22;27178;49.460;10.850;2023-04-24T12:22:45;18.00;56.50
41437;DHT22;27178;49.460;10.850;2023-04-24T12:25:14;18.00;56.00
41437;DHT22;27178;49.460;10.850;2023-04-24T12:27:45;18.00;55.80
41437;DHT22;27178;49.460;10.850;2023-04-24T12:30:15;18.00;55.80
41437;DHT22;27178;49.460;10.850;2023-04-24T12:32:46;17.90;56.10
41437;DHT22;27178;49.460;10.850;2023-04-24T12:35:19;17.90;55.70
41437;DHT22;27178;49.460;10.850;2023-04-24T12:37:48;17.80;55.90
41437;DHT22;27178;49.460;10.850;2023-04-24T12:40:18;17.80;56.00
41437;DHT22;27178;49.460;10.850;2023-04-24T12:42:49;17.80;56.10
41437;DHT22;27178;49.460;10.850;2023-04-24T12:45:18;17.70;55.90
41437;DHT22;27178;49.460;10.850;2023-04-24T12:47:46;17.70;55.70
41437;DHT22;27178;49.460;10.850;2023-04-24T12:50:17;17.70;55.80
41437;DHT22;27178;49.460;10.850;2023-04-24T12:52:45;17.70;56.00
41437;DHT22;27178;49.460;10.850;2023-04-24T12:55:13;17.70;56.00
41437;DHT22;27178;49.460;10.850;2023-04-24T12:57:41;17.70;56.10
41437;DHT22;27178;49.460;10.850;2023-04-24T13:00:12;17.70;55.90
41437;DHT22;27178;49.460;10.850;2023-04-24T13:02:42;17.80;55.60
41437;DHT22;27178;49.460;10.850;2023-04-24T13:05:11;17.80;55.60
41437;DHT22;27178;49.460;10.850;2023-04-24T13:07:41;17.80;55.50
41437;DHT22;27178;49.460;10.850;2023-04-24T13:10:10;17.70;55.30
41437;DHT22;27178;49.460;10.850;2023-04-24T13:12:39;17.70;55.10
41437;DHT22;27178;49.460;10.850;2023-04-24T13:15:08;17.60;55.20
41437;DHT22;27178;49.460;10.850;2023-04-24T13:17:38;17.50;55.20
41437;DHT22;27178;49.460;10.850;2023-04-24T13:20:06;17.40;55.40
41437;DHT22;27178;49.460;10.850;2023-04-24T13:22:36;17.30;55.30
41437;DHT22;27178;49.460;10.850;2023-04-24T13:25:05;17.30;55.50
41437;DHT22;27178;49.460;10.850;2023-04-24T13:27:34;17.20;55.70
41437;DHT22;27178;49.460;10.850;2023-04-24T13:30:03;17.20;56.00
41437;DHT22;27178;49.460;10.850;2023-04-24T13:32:32;17.20;55.80
41437;DHT22;27178;49.460;10.850;2023-04-24T13:35:04;17.10;55.50
41437;DHT22;27178;49.460;10.850;2023-04-24T13:37:32;17.00;55.60
41437;DHT22;27178;49.460;10.850;2023-04-24T13:40:01;16.90;55.80
41437;DHT22;27178;49.460;10.850;2023-04-24T13:42:29;16.90;56.10
41437;DHT22;27178;49.460;10.850;2023-04-24T13:44:57;16.80;56.20
41437;DHT22;27178;49.460;10.850;2023-04-24T13:47:28;16.70;56.20
41437;DHT22;27178;49.460;10.850;2023-04-24T13:49:56;16.70;56.50
41437;DHT22;27178;49.460;10.850;2023-04-24T13:52:26;16.70;56.80
41437;DHT22;27178;49.460;10.850;2023-04-24T13:54:55;16.80;57.00
41437;DHT22;27178;49.460;10.850;2023-04-24T13:57:23;17.00;57.30
41437;DHT22;27178;49.460;10.850;2023-04-24T13:59:51;17.20;57.00
41437;DHT22;27178;49.460;10.850;2023-04-24T14:02:20;17.40;57.20
41437;DHT22;27178;49.460;10.850;2023-04-24T14:04:49;17.70;57.10
41437;DHT22;27178;49.460;10.850;2023-04-24T14:07:17;17.80;56.50
41437;DHT22;27178;49.460;10.850;2023-04-24T14:09:47;18.00;56.30
41437;DHT22;27178;49.460;10.850;2023-04-24T14:12:17;18.10;55.90
41437;DHT22;27178;49.460;10.850;2023-04-24T14:14:47;18.10;55.80
41437;DHT22;27178;49.460;10.850;2023-04-24T14:17:15;18.20;55.80
41437;DHT22;27178;49.460;10.850;2023-04-24T14:19:43;18.20;55.50
41437;DHT22;27178;49.460;10.850;2023-04-24T14:22:11;18.30;55.30
41437;DHT22;27178;49.460;10.850;2023-04-24T14:24:39;18.30;55.00
41437;DHT22;27178;49.460;10.850;2023-04-24T14:27:09;18.20;54.80
41437;DHT22;27178;49.460;10.850;2023-04-24T14:29:37;18.20;55.20
41437;DHT22;27178;49.460;10.850;2023-04-24T14:32:06;18.30;55.20
41437;DHT22;27178;49.460;10.850;2023-04-24T14:34:35;18.30;55.00
41437;DHT22;27178;49.460;10.850;2023-04-24T14:37:04;18.40;54.80
41437;DHT22;27178;49.460;10.850;2023-04-24T14:39:32;18.40;54.60
41437;DHT22;27178;49.460;10.850;2023-04-24T14:42:01;18.40;54.80
41437;DHT22;27178;49.460;10.850;2023-04-24T14:44:30;18.40;55.00
41437;DHT22;27178;49.460;10.850;2023-04-24T14:46:59;18.50;55.20
41437;DHT22;27178;49.460;10.850;2023-04-24T14:49:28;18.60;55.30
41437;DHT22;27178;49.460;10.850;2023-04-24T14:51:56;18.80;54.80
41437;DHT22;27178;49.460;10.850;2023-04-24T14:54:25;19.00;55.10
41437;DHT22;27178;49.460;10.850;2023-04-24T14:56:54;19.20;55.00
41437;DHT22;27178;49.460;10.850;2023-04-24T14:59:24;19.40;54.80
41437;DHT22;27178;49.460;10.850;2023-04-24T15:01:53;19.70;55.00
41437;DHT22;27178;49.460;10.850;2023-04-24T15:04:41;19.90;54.30
41437;DHT22;27178;49.460;10.850;2023-04-24T15:07:10;20.20;54.00
41437;DHT22;27178;49.460;10.850;2023-04-24T15:09:38;20.30;54.20
41437;DHT22;27178;49.460;10.850;2023-04-24T15:12:07;20.50;52.90
41437;DHT22;27178;49.460;10.850;2023-04-24T15:14:36;20.60;53.10
41437;DHT22;27178;49.460;10.850;2023-04-24T15:17:06;20.70;52.90
41437;DHT22;27178;49.460;10.850;2023-04-24T15:19:35;20.80;52.70
41437;DHT22;27178;49.460;10.850;2023-04-24T15:22:03;20.90;51.90
41437;DHT22;27178;49.460;10.850;2023-04-24T15:24:31;20.90;51.50
41437;DHT22;27178;49.460;10.850;2023-04-24T15:27:01;20.90;51.70
41437;DHT22;27178;49.460;10.850;2023-04-24T15:29:29;20.80;51.70
41437;DHT22;27178;49.460;10.850;2023-04-24T15:31:58;20.70;51.30